Time;durP1;ratioP1;P1;durP2;ratioP2;P2;SDS_P1;SDS_P2;PMS_P1;PMS_P2;Temp;Humidity;BMP_temperature;BMP_pressure;BME280_temperature;BME280_humidity;BME280_pressure;Samples;Min_cycle;Max_cycle;Signal;HPM_P1;HPM_P2
2021/12/26 00:00:10;;;;;;;23.95;13.10;;;-1.60;91.30;;;;;;4970418;28;20057;-68
2021/12/26 00:02:35;;;;;;;31.67;14.07;;;-1.60;91.30;;;;;;4968511;28;20035;-68
2021/12/26 00:05:02;;;;;;;33.80;18.38;;;-1.60;91.40;;;;;;4970525;28;20034;-68
2021/12/26 00:07:27;;;;;;;36.08;19.58;;;-1.70;91.50;;;;;;4971521;28;20374;-68
2021/12/26 00:09:53;;;;;;;38.95;19.92;;;-1.70;91.60;;;;;;4971189;28;20045;-68
2021/12/26 00:12:18;;;;;;;37.55;20.95;;;-1.80;91.60;;;;;;4970690;28;20035;-68
2021/12/26 00:14:44;;;;;;;37.47;23.75;;;-1.70;91.70;;;;;;4960184;28;20467;-68
2021/12/26 00:17:09;;;;;;;43.88;23.50;;;-1.70;91.80;;;;;;4969349;28;20054;-68
2021/12/26 00:19:35;;;;;;;42.45;23.27;;;-1.80;91.70;;;;;;4971605;28;20394;-68
2021/12/26 00:22:00;;;;;;;40.78;23.60;;;-1.90;91.80;;;;;;4971726;28;20034;-69
2021/12/26 00:24:25;;;;;;;41.35;23.35;;;-1.90;91.80;;;;;;4962433;28;20028;-68
2021/12/26 00:26:51;;;;;;;37.30;22.23;;;-2.00;91.90;;;;;;4953062;29;20031;-68
2021/12/26 00:29:17;;;;;;;42.72;23.35;;;-2.00;91.90;;;;;;4968991;28;20062;-68
2021/12/26 00:31:42;;;;;;;37.78;21.75;;;-2.00;91.90;;;;;;4964528;28;20019;-68
2021/12/26 00:34:08;;;;;;;36.38;21.08;;;-2.00;92.00;;;;;;4968603;28;20030;-68
2021/12/26 00:36:33;;;;;;;37.17;20.33;;;-2.00;92.00;;;;;;4970871;28;20383;-68
2021/12/26 00:38:59;;;;;;;39.35;20.42;;;-2.00;92.10;;;;;;4956449;28;20023;-69
2021/12/26 00:41:24;;;;;;;30.83;18.83;;;-2.10;92.10;;;;;;4969198;28;20038;-69
2021/12/26 00:43:50;;;;;;;30.83;17.67;;;-2.10;92.20;;;;;;4960668;28;20028;-68
2021/12/26 00:46:15;;;;;;;35.53;20.15;;;-2.10;92.20;;;;;;4966633;28;20033;-68
2021/12/26 00:48:41;;;;;;;36.15;19.92;;;-2.10;92.20;;;;;;4965818;28;20039;-68
2021/12/26 00:51:06;;;;;;;31.95;19.20;;;-2.20;92.20;;;;;;4968807;28;20027;-68
2021/12/26 00:53:33;;;;;;;29.42;17.25;;;-2.20;92.20;;;;;;4966763;28;20030;-68
2021/12/26 00:55:59;;;;;;;28.55;17.05;;;-2.20;92.20;;;;;;4973418;28;20565;-68
2021/12/26 00:58:25;;;;;;;28.38;16.27;;;-2.20;92.20;;;;;;4970360;28;20383;-69
2021/12/26 01:00:51;;;;;;;26.27;15.27;;;-2.20;92.20;;;;;;4964651;28;20502;-68
2021/12/26 01:03:19;;;;;;;28.27;15.52;;;-2.30;92.30;;;;;;4974333;28;20486;-70
2021/12/26 01:05:50;;;;;;;28.63;15.90;;;-2.40;92.30;;;;;;4974067;28;20565;-68
2021/12/26 01:08:18;;;;;;;20.10;13.27;;;-2.30;92.30;;;;;;4973179;28;20043;-68
2021/12/26 01:10:56;;;;;;;25.52;14.98;;;-2.30;92.40;;;;;;4972467;28;20046;-68
2021/12/26 01:15:52;;;;;;;24.50;14.63;;;-2.30;92.40;;;;;;4974067;28;20035;-69
2021/12/26 01:18:18;;;;;;;23.42;14.50;;;-2.40;92.40;;;;;;4973995;28;20046;-69
2021/12/26 01:20:59;;;;;;;24.05;14.57;;;-2.40;92.40;;;;;;4973782;28;20067;-69
2021/12/26 01:23:26;;;;;;;27.08;14.65;;;-2.40;92.40;;;;;;4956225;28;20046;-68
2021/12/26 01:25:53;;;;;;;27.95;14.85;;;-2.40;92.40;;;;;;4955605;28;20039;-68
2021/12/26 01:28:21;;;;;;;28.45;15.95;;;-2.50;92.40;;;;;;4969719;28;20042;-68
2021/12/26 01:30:47;;;;;;;25.67;13.40;;;-2.50;92.50;;;;;;4975000;28;20129;-68
2021/12/26 01:33:15;;;;;;;24.33;13.90;;;-2.50;92.50;;;;;;4973605;28;20102;-69
2021/12/26 01:35:41;;;;;;;25.90;14.95;;;-2.50;92.60;;;;;;4974584;28;20113;-68
2021/12/26 01:38:10;;;;;;;24.90;14.02;;;-2.50;92.60;;;;;;4971296;28;20459;-68
2021/12/26 01:40:39;;;;;;;20.42;12.20;;;-2.50;92.60;;;;;;4971586;28;20029;-69
2021/12/26 01:43:05;;;;;;;19.02;11.60;;;-2.50;92.60;;;;;;4971877;28;20126;-68
2021/12/26 01:45:30;;;;;;;20.13;11.20;;;-2.50;92.70;;;;;;4974578;28;20027;-69
2021/12/26 01:48:00;;;;;;;24.88;11.60;;;-2.50;92.70;;;;;;4972409;28;20576;-69
2021/12/26 01:50:27;;;;;;;21.92;11.07;;;-2.50;92.70;;;;;;4971602;28;20031;-68
2021/12/26 01:52:52;;;;;;;15.23;9.95;;;-2.50;92.70;;;;;;4960796;28;20494;-69
2021/12/26 01:55:36;;;;;;;15.48;9.98;;;-2.60;92.70;;;;;;4972832;28;20038;-69
2021/12/26 01:58:02;;;;;;;17.95;9.85;;;-2.60;92.70;;;;;;4961787;28;20042;-68
2021/12/26 02:00:28;;;;;;;21.50;11.75;;;-2.60;92.70;;;;;;4961216;28;20054;-68
2021/12/26 02:02:54;;;;;;;23.58;11.85;;;-2.60;92.70;;;;;;4972126;28;20089;-68
2021/12/26 02:05:20;;;;;;;20.48;12.70;;;-2.70;92.70;;;;;;4957196;28;20043;-68
2021/12/26 02:07:45;;;;;;;21.13;12.65;;;-2.70;92.70;;;;;;4954303;28;20043;-68
2021/12/26 02:10:11;;;;;;;23.33;12.20;;;-2.70;92.70;;;;;;4967915;28;20033;-68
2021/12/26 02:12:36;;;;;;;21.73;11.35;;;-2.70;92.80;;;;;;4973389;28;20038;-68
2021/12/26 02:15:03;;;;;;;19.40;12.73;;;-2.70;92.80;;;;;;4972905;28;20035;-67
2021/12/26 02:17:28;;;;;;;27.63;12.88;;;-2.70;92.80;;;;;;4972000;28;20045;-67
2021/12/26 02:20:12;;;;;;;21.38;12.82;;;-2.70;92.80;;;;;;4971473;28;20026;-67
2021/12/26 02:22:40;;;;;;;23.45;12.18;;;-2.80;92.70;;;;;;4970788;28;20037;-68
2021/12/26 02:25:23;;;;;;;23.92;12.98;;;-2.80;92.70;;;;;;4973822;28;20041;-68
2021/12/26 02:27:48;;;;;;;21.40;12.10;;;-2.80;92.70;;;;;;4972531;28;20042;-68
2021/12/26 02:30:16;;;;;;;23.65;13.27;;;-2.90;92.70;;;;;;4973113;28;20038;-68
2021/12/26 02:32:47;;;;;;;21.23;13.82;;;-2.90;92.80;;;;;;4967482;28;20042;-69
2021/12/26 02:35:13;;;;;;;19.75;11.48;;;-2.90;92.80;;;;;;4973382;28;20034;-68
2021/12/26 02:37:38;;;;;;;24.08;12.85;;;-2.90;92.80;;;;;;4971516;28;20437;-68
2021/12/26 02:40:06;;;;;;;25.02;15.80;;;-2.90;92.80;;;;;;4973451;28;20050;-68
2021/12/26 02:42:31;;;;;;;24.05;15.52;;;-3.00;92.90;;;;;;4972490;28;20023;-68
2021/12/26 02:44:57;;;;;;;23.27;13.45;;;-3.00;92.90;;;;;;4973416;28;20037;-68
2021/12/26 02:47:33;;;;;;;21.95;13.02;;;-3.00;92.90;;;;;;4972231;28;20066;-68
2021/12/26 02:50:21;;;;;;;26.23;14.20;;;-2.90;93.00;;;;;;4968182;28;20039;-68
2021/12/26 02:52:47;;;;;;;23.05;13.68;;;-3.00;92.90;;;;;;4959841;28;20066;-68
2021/12/26 02:55:16;;;;;;;18.10;12.15;;;-3.00;92.90;;;;;;4973644;28;20051;-68
2021/12/26 02:57:45;;;;;;;21.75;12.48;;;-2.90;93.00;;;;;;4970682;28;20370;-68
2021/12/26 03:00:14;;;;;;;25.60;13.63;;;-3.00;92.90;;;;;;4973025;28;20062;-68
2021/12/26 03:02:42;;;;;;;23.70;13.27;;;-3.00;93.00;;;;;;4969510;28;20475;-68
2021/12/26 03:05:08;;;;;;;22.65;13.02;;;-2.90;93.00;;;;;;4973198;28;20039;-68
2021/12/26 03:07:33;;;;;;;24.52;12.30;;;-3.00;93.00;;;;;;4972057;28;20038;-68
2021/12/26 03:10:00;;;;;;;19.98;11.98;;;-3.00;93.00;;;;;;4972990;28;20054;-68
2021/12/26 03:12:32;;;;;;;19.88;11.80;;;-3.00;93.10;;;;;;4969305;28;20093;-68
2021/12/26 03:14:57;;;;;;;21.98;10.98;;;-3.00;93.10;;;;;;4971660;28;20037;-68
2021/12/26 03:17:22;;;;;;;17.92;10.15;;;-3.00;93.10;;;;;;4971919;28;20034;-68
2021/12/26 03:19:48;;;;;;;19.80;11.27;;;-3.00;93.10;;;;;;4972708;28;20027;-68
2021/12/26 03:22:15;;;;;;;18.13;11.07;;;-2.90;93.20;;;;;;4971338;28;20069;-68
2021/12/26 03:24:43;;;;;;;17.63;9.95;;;-2.90;93.20;;;;;;4972492;28;20030;-68
2021/12/26 03:27:09;;;;;;;20.70;12.13;;;-2.90;93.10;;;;;;4965646;28;20082;-69
2021/12/26 03:29:35;;;;;;;20.70;10.75;;;-2.90;93.10;;;;;;4973184;28;20035;-68
2021/12/26 03:32:01;;;;;;;21.27;11.48;;;-3.00;93.10;;;;;;4969649;28;20030;-68
2021/12/26 03:34:26;;;;;;;23.23;11.38;;;-3.00;93.10;;;;;;4953442;28;20043;-68
2021/12/26 03:36:53;;;;;;;19.45;12.02;;;-3.00;93.10;;;;;;4965875;28;20035;-69
2021/12/26 03:39:20;;;;;;;18.88;11.50;;;-3.00;93.10;;;;;;4957541;28;20135;-69
2021/12/26 03:41:46;;;;;;;16.17;10.73;;;-3.10;93.10;;;;;;4964353;28;20034;-69
2021/12/26 03:44:12;;;;;;;20.30;12.63;;;-3.00;93.10;;;;;;4972750;28;20031;-69
2021/12/26 03:46:38;;;;;;;21.70;11.65;;;-3.00;93.10;;;;;;4971369;28;20041;-69
2021/12/26 03:49:05;;;;;;;22.10;11.98;;;-3.00;93.10;;;;;;4972563;28;20038;-69
2021/12/26 03:51:33;;;;;;;22.05;13.27;;;-3.10;93.20;;;;;;4966805;28;20031;-68
2021/12/26 03:53:59;;;;;;;23.00;12.10;;;-3.10;93.20;;;;;;4971626;28;20034;-68
2021/12/26 03:56:25;;;;;;;17.98;11.75;;;-3.10;93.20;;;;;;4971268;28;20041;-69
2021/12/26 03:58:50;;;;;;;32.22;15.27;;;-3.10;93.20;;;;;;4971403;28;20038;-69
2021/12/26 04:01:15;;;;;;;25.33;13.90;;;-3.10;93.20;;;;;;4972153;28;20058;-69
2021/12/26 04:03:41;;;;;;;27.92;16.13;;;-3.20;93.20;;;;;;4970989;28;20065;-69
2021/12/26 04:06:07;;;;;;;25.98;15.15;;;-3.20;93.10;;;;;;4972357;28;20054;-69
2021/12/26 04:08:32;;;;;;;24.20;14.95;;;-3.30;93.20;;;;;;4971551;28;20049;-69
2021/12/26 04:10:58;;;;;;;29.17;17.77;;;-3.30;93.20;;;;;;4970435;28;20027;-69
2021/12/26 04:13:23;;;;;;;28.23;16.33;;;-3.30;93.20;;;;;;4957252;28;20499;-69
2021/12/26 04:15:49;;;;;;;25.30;15.63;;;-3.40;93.10;;;;;;4960529;28;20443;-69
2021/12/26 04:18:15;;;;;;;29.30;15.85;;;-3.40;93.20;;;;;;4970253;28;20035;-69
2021/12/26 04:20:40;;;;;;;26.48;15.63;;;-3.50;93.20;;;;;;4969087;28;20019;-68
2021/12/26 04:23:06;;;;;;;34.85;14.38;;;-3.50;93.20;;;;;;4960353;28;20082;-68
2021/12/26 04:25:32;;;;;;;24.90;13.68;;;-3.50;93.20;;;;;;4957768;28;20081;-69
2021/12/26 04:27:57;;;;;;;27.13;15.18;;;-3.40;93.20;;;;;;4971022;28;20045;-68
2021/12/26 04:30:24;;;;;;;27.08;13.95;;;-3.40;93.20;;;;;;4972574;28;20038;-69
2021/12/26 04:32:51;;;;;;;28.77;14.90;;;-3.50;93.20;;;;;;4974909;28;20035;-69
2021/12/26 04:35:17;;;;;;;32.58;13.73;;;-3.50;93.20;;;;;;4974352;28;20142;-68
2021/12/26 04:37:43;;;;;;;22.75;13.40;;;-3.50;93.30;;;;;;4974502;28;20037;-68
2021/12/26 04:40:12;;;;;;;22.83;12.65;;;-3.50;93.30;;;;;;4975431;28;20027;-69
2021/12/26 04:42:39;;;;;;;27.35;13.68;;;-3.50;93.30;;;;;;4964729;28;20066;-68
2021/12/26 04:45:08;;;;;;;25.20;11.70;;;-3.50;93.30;;;;;;4975359;28;20585;-68
2021/12/26 04:47:34;;;;;;;20.85;13.02;;;-3.50;93.30;;;;;;4973554;28;20035;-68
2021/12/26 04:50:00;;;;;;;25.50;13.13;;;-3.50;93.30;;;;;;4974268;28;20034;-68
2021/12/26 04:52:25;;;;;;;24.67;13.65;;;-3.50;93.30;;;;;;4974633;28;20055;-68
2021/12/26 04:54:52;;;;;;;24.08;12.52;;;-3.50;93.30;;;;;;4974829;28;20117;-68
2021/12/26 04:57:18;;;;;;;21.73;12.55;;;-3.60;93.20;;;;;;4973730;28;20114;-68
2021/12/26 04:59:43;;;;;;;21.92;12.18;;;-3.50;93.30;;;;;;4975287;28;20554;-67
2021/12/26 05:02:10;;;;;;;26.80;12.65;;;-3.60;93.20;;;;;;4974223;28;20102;-68
2021/12/26 05:04:36;;;;;;;25.25;13.10;;;-3.60;93.20;;;;;;4975280;28;20027;-68
2021/12/26 05:07:01;;;;;;;22.67;12.52;;;-3.60;93.20;;;;;;4974191;28;20026;-67
2021/12/26 05:09:27;;;;;;;28.77;14.23;;;-3.60;93.20;;;;;;4975506;28;20284;-68
2021/12/26 05:11:53;;;;;;;23.63;13.18;;;-3.60;93.20;;;;;;4972961;28;20081;-68
2021/12/26 05:14:19;;;;;;;24.02;13.73;;;-3.70;93.20;;;;;;4974834;28;20038;-68
2021/12/26 05:16:44;;;;;;;29.02;14.52;;;-3.70;93.20;;;;;;4973205;28;20037;-69
2021/12/26 05:19:10;;;;;;;26.23;14.35;;;-3.70;93.20;;;;;;4975080;28;20049;-68
2021/12/26 05:21:35;;;;;;;21.50;12.23;;;-3.70;93.20;;;;;;4966123;28;20085;-69
2021/12/26 05:24:01;;;;;;;22.25;12.90;;;-3.80;93.20;;;;;;4971490;28;20090;-69
2021/12/26 05:26:26;;;;;;;23.23;11.93;;;-3.80;93.20;;;;;;4974209;28;20034;-68
2021/12/26 05:28:52;;;;;;;27.00;14.07;;;-3.80;93.20;;;;;;4973771;28;20402;-69
2021/12/26 05:31:17;;;;;;;25.45;13.95;;;-3.80;93.20;;;;;;4974871;28;20497;-68
2021/12/26 05:33:43;;;;;;;21.77;12.63;;;-3.80;93.20;;;;;;4974172;28;20038;-69
2021/12/26 05:36:08;;;;;;;23.80;11.55;;;-3.80;93.20;;;;;;4973415;28;20097;-68
2021/12/26 05:38:34;;;;;;;21.90;11.38;;;-3.90;93.10;;;;;;4973711;28;20022;-68
2021/12/26 05:40:59;;;;;;;20.60;11.85;;;-3.90;93.20;;;;;;4969799;28;20039;-68
2021/12/26 05:43:25;;;;;;;20.77;11.55;;;-3.90;93.20;;;;;;4970113;28;20394;-68
2021/12/26 05:45:50;;;;;;;26.75;12.85;;;-3.90;93.20;;;;;;4974058;28;20050;-68
2021/12/26 05:48:16;;;;;;;19.98;11.63;;;-3.90;93.20;;;;;;4971403;28;20086;-67
2021/12/26 05:50:41;;;;;;;21.80;11.55;;;-3.90;93.30;;;;;;4971451;28;20026;-67
2021/12/26 05:53:07;;;;;;;18.70;11.40;;;-3.90;93.30;;;;;;4973481;28;20034;-68
2021/12/26 05:55:32;;;;;;;19.55;12.05;;;-4.00;93.20;;;;;;4974403;28;20541;-68
2021/12/26 05:57:58;;;;;;;21.15;10.35;;;-4.00;93.30;;;;;;4971911;28;20133;-68
2021/12/26 06:00:23;;;;;;;23.50;12.55;;;-4.00;93.30;;;;;;4973949;28;20073;-68
2021/12/26 06:02:50;;;;;;;22.70;12.25;;;-4.00;93.20;;;;;;4973256;28;20471;-68
2021/12/26 06:05:17;;;;;;;22.63;12.57;;;-4.10;93.30;;;;;;4973998;28;20031;-68
2021/12/26 06:07:43;;;;;;;22.45;11.55;;;-4.10;93.30;;;;;;4972924;28;20103;-68
2021/12/26 06:10:09;;;;;;;20.00;10.85;;;-4.10;93.30;;;;;;4974342;28;20031;-67
2021/12/26 06:12:35;;;;;;;20.98;10.90;;;-4.10;93.30;;;;;;4970895;28;20023;-67
2021/12/26 06:15:02;;;;;;;21.15;10.85;;;-4.10;93.30;;;;;;4972653;28;20030;-67
2021/12/26 06:17:28;;;;;;;18.20;10.00;;;-4.10;93.40;;;;;;4967537;28;20038;-68
2021/12/26 06:19:53;;;;;;;18.17;10.10;;;-4.10;93.40;;;;;;4973647;28;20121;-68
2021/12/26 06:22:19;;;;;;;16.77;10.23;;;-4.10;93.40;;;;;;4972613;28;20042;-68
2021/12/26 06:24:44;;;;;;;17.33;10.10;;;-4.20;93.40;;;;;;4973632;28;20034;-68
2021/12/26 06:27:10;;;;;;;16.85;9.73;;;-4.20;93.40;;;;;;4972483;28;20540;-68
2021/12/26 06:29:36;;;;;;;22.70;11.50;;;-4.20;93.40;;;;;;4973618;28;20031;-68
2021/12/26 06:32:01;;;;;;;20.40;10.32;;;-4.20;93.40;;;;;;4969386;28;20077;-68
2021/12/26 06:34:27;;;;;;;17.13;10.32;;;-4.20;93.40;;;;;;4973412;28;20043;-68
2021/12/26 06:36:52;;;;;;;23.55;10.70;;;-4.20;93.40;;;;;;4970983;28;20086;-68
2021/12/26 06:39:18;;;;;;;17.85;9.65;;;-4.20;93.40;;;;;;4973267;28;20035;-68
2021/12/26 06:41:44;;;;;;;19.02;10.02;;;-4.20;93.40;;;;;;4972396;28;20046;-69
2021/12/26 06:44:10;;;;;;;19.77;9.25;;;-4.30;93.40;;;;;;4971088;28;20050;-68
2021/12/26 06:46:36;;;;;;;17.60;9.52;;;-4.30;93.40;;;;;;4964388;28;20034;-68
2021/12/26 06:49:02;;;;;;;16.85;8.75;;;-4.30;93.50;;;;;;4973107;28;20034;-68
2021/12/26 06:51:28;;;;;;;16.92;9.07;;;-4.30;93.50;;;;;;4972695;28;20064;-68
2021/12/26 06:53:53;;;;;;;18.83;9.05;;;-4.30;93.50;;;;;;4972091;28;20040;-68
2021/12/26 06:56:19;;;;;;;16.05;8.98;;;-4.30;93.50;;;;;;4971642;28;20035;-68
2021/12/26 06:58:44;;;;;;;14.82;9.38;;;-4.30;93.50;;;;;;4972182;28;20062;-69
2021/12/26 07:01:10;;;;;;;14.65;9.27;;;-4.30;93.50;;;;;;4971387;28;20541;-68
2021/12/26 07:03:36;;;;;;;16.13;9.02;;;-4.30;93.50;;;;;;4960808;28;20022;-68
2021/12/26 07:06:02;;;;;;;19.40;9.30;;;-4.40;93.50;;;;;;4972583;28;20162;-68
2021/12/26 07:08:28;;;;;;;18.50;9.35;;;-4.40;93.50;;;;;;4965070;28;20133;-69
2021/12/26 07:10:53;;;;;;;19.13;9.30;;;-4.40;93.50;;;;;;4966104;28;20038;-68
2021/12/26 07:13:19;;;;;;;16.35;8.88;;;-4.40;93.60;;;;;;4958754;28;20035;-70
2021/12/26 07:15:44;;;;;;;16.67;9.40;;;-4.40;93.60;;;;;;4956294;28;20486;-69
2021/12/26 07:18:10;;;;;;;15.15;7.63;;;-4.40;93.60;;;;;;4960042;28;20510;-69
2021/12/26 07:20:35;;;;;;;15.40;8.43;;;-4.40;93.60;;;;;;4966422;28;20089;-68
2021/12/26 07:23:01;;;;;;;15.63;8.55;;;-4.40;93.60;;;;;;4971794;28;20065;-69
2021/12/26 07:25:27;;;;;;;14.15;8.38;;;-4.40;93.60;;;;;;4972555;28;20138;-68
2021/12/26 07:27:52;;;;;;;14.95;7.93;;;-4.40;93.60;;;;;;4969842;28;20039;-69
2021/12/26 07:30:18;;;;;;;14.95;8.85;;;-4.40;93.60;;;;;;4972878;28;20031;-70
2021/12/26 07:32:43;;;;;;;16.10;8.38;;;-4.40;93.60;;;;;;4968329;28;20034;-65
2021/12/26 07:35:10;;;;;;;15.15;8.25;;;-4.40;93.60;;;;;;4980609;28;20045;-68
2021/12/26 07:37:35;;;;;;;19.05;9.20;;;-4.40;93.60;;;;;;4966425;28;20533;-66
2021/12/26 07:40:03;;;;;;;16.67;8.68;;;-4.40;93.60;;;;;;4969399;28;20043;-66
2021/12/26 07:42:29;;;;;;;18.42;10.63;;;-4.40;93.60;;;;;;4959747;28;20031;-66
2021/12/26 07:44:54;;;;;;;19.02;9.90;;;-4.40;93.60;;;;;;4972311;28;20038;-67
2021/12/26 07:47:20;;;;;;;19.20;9.20;;;-4.50;93.60;;;;;;4971261;28;20468;-67
2021/12/26 07:49:45;;;;;;;17.30;10.18;;;-4.40;93.60;;;;;;4972020;28;20081;-67
2021/12/26 07:52:18;;;;;;;16.70;10.45;;;-4.40;93.60;;;;;;4971693;28;20027;-67
2021/12/26 07:54:45;;;;;;;17.75;10.43;;;-4.40;93.60;;;;;;4972614;28;20042;-67
2021/12/26 07:57:11;;;;;;;19.92;9.90;;;-4.40;93.60;;;;;;4971104;28;20027;-67
2021/12/26 07:59:37;;;;;;;16.15;9.40;;;-4.40;93.60;;;;;;4972056;28;20038;-67
2021/12/26 08:02:03;;;;;;;15.50;8.73;;;-4.40;93.60;;;;;;4970237;28;20050;-67
2021/12/26 08:04:28;;;;;;;15.30;9.30;;;-4.40;93.70;;;;;;4971603;28;20161;-66
2021/12/26 08:06:55;;;;;;;19.48;8.73;;;-4.40;93.70;;;;;;4960034;28;20118;-67
2021/12/26 08:09:20;;;;;;;18.38;8.38;;;-4.30;93.70;;;;;;4974910;28;20043;-67
2021/12/26 08:11:46;;;;;;;16.40;8.88;;;-4.30;93.70;;;;;;4972814;28;20034;-67
2021/12/26 08:14:11;;;;;;;14.85;8.43;;;-4.30;93.70;;;;;;4972834;28;20510;-67
2021/12/26 08:16:37;;;;;;;15.63;8.10;;;-4.30;93.70;;;;;;4973200;28;20514;-67
2021/12/26 08:19:03;;;;;;;18.88;7.72;;;-4.30;93.70;;;;;;4974702;28;20086;-68
2021/12/26 08:21:29;;;;;;;20.60;9.02;;;-4.30;93.70;;;;;;4973082;28;20031;-68
2021/12/26 08:23:55;;;;;;;17.23;8.38;;;-4.20;93.70;;;;;;4973940;28;20038;-68
2021/12/26 08:26:20;;;;;;;20.25;10.18;;;-4.30;93.70;;;;;;4974733;28;20023;-68
2021/12/26 08:28:46;;;;;;;21.55;9.90;;;-4.20;93.70;;;;;;4973466;28;20046;-68
2021/12/26 08:31:12;;;;;;;19.25;10.15;;;-4.30;93.70;;;;;;4971268;28;20122;-68
2021/12/26 08:33:38;;;;;;;19.60;8.98;;;-4.30;93.80;;;;;;4971670;28;20038;-68
2021/12/26 08:36:04;;;;;;;17.58;8.93;;;-4.20;93.80;;;;;;4973695;28;20030;-68
2021/12/26 08:38:30;;;;;;;20.08;10.02;;;-4.10;93.90;;;;;;4973637;28;20035;-68
2021/12/26 08:40:56;;;;;;;20.25;9.32;;;-4.10;93.90;;;;;;4974454;28;20037;-68
2021/12/26 08:43:22;;;;;;;16.48;9.60;;;-4.00;93.90;;;;;;4972820;28;20117;-68
2021/12/26 08:45:49;;;;;;;18.67;10.48;;;-4.00;94.00;;;;;;4972560;28;20026;-68
2021/12/26 08:48:15;;;;;;;17.10;9.85;;;-4.00;94.00;;;;;;4973304;28;20398;-68
2021/12/26 08:50:41;;;;;;;19.52;9.50;;;-4.00;93.90;;;;;;4971730;28;20466;-69
2021/12/26 08:53:08;;;;;;;19.95;10.43;;;-3.90;94.00;;;;;;4959558;28;20793;-67
2021/12/26 08:55:34;;;;;;;21.35;11.05;;;-3.90;94.00;;;;;;4958257;28;20031;-67
2021/12/26 08:57:59;;;;;;;22.63;10.65;;;-3.80;94.00;;;;;;4959649;28;20094;-67
2021/12/26 09:00:25;;;;;;;20.55;11.70;;;-3.70;94.10;;;;;;4922896;28;976588;-67
2021/12/26 09:02:51;;;;;;;25.02;12.05;;;-3.70;94.10;;;;;;4958972;28;20100;-69
2021/12/26 09:05:18;;;;;;;21.20;11.95;;;-3.70;94.10;;;;;;4958762;28;20035;-68
2021/12/26 09:07:44;;;;;;;20.90;10.18;;;-3.60;94.10;;;;;;4958670;28;20099;-68
2021/12/26 09:10:12;;;;;;;19.80;10.25;;;-3.50;94.20;;;;;;4959372;28;20121;-68
2021/12/26 09:12:38;;;;;;;19.42;11.10;;;-3.50;94.20;;;;;;4959541;28;20590;-68
2021/12/26 09:15:06;;;;;;;20.67;11.18;;;-3.40;94.20;;;;;;4958555;28;20026;-66
2021/12/26 09:17:32;;;;;;;20.73;11.02;;;-3.40;94.20;;;;;;4958918;28;20035;-68
2021/12/26 09:19:57;;;;;;;21.60;11.15;;;-3.20;94.20;;;;;;4958669;28;20043;-68
2021/12/26 09:22:23;;;;;;;18.63;11.13;;;-3.30;94.10;;;;;;4958197;28;20085;-68
2021/12/26 09:24:49;;;;;;;20.10;12.05;;;-3.30;94.00;;;;;;4964995;28;20063;-67
2021/12/26 09:27:15;;;;;;;20.42;12.13;;;-3.20;94.00;;;;;;4973087;28;20027;-68
2021/12/26 09:29:41;;;;;;;22.23;11.82;;;-3.20;94.00;;;;;;4972839;28;20470;-67
2021/12/26 09:32:07;;;;;;;20.92;12.43;;;-3.20;93.90;;;;;;4965266;28;20035;-68
2021/12/26 09:34:34;;;;;;;27.88;14.45;;;-3.20;93.80;;;;;;4964395;28;20478;-68
2021/12/26 09:37:03;;;;;;;24.42;13.63;;;-3.20;93.80;;;;;;4973763;28;20031;-68
2021/12/26 09:39:28;;;;;;;22.48;13.45;;;-3.20;93.80;;;;;;4969430;28;20038;-68
2021/12/26 09:41:54;;;;;;;27.35;14.45;;;-3.10;93.80;;;;;;4960139;28;20035;-68
2021/12/26 09:44:21;;;;;;;24.08;13.35;;;-3.10;93.70;;;;;;4958739;28;20039;-68
2021/12/26 09:46:46;;;;;;;25.45;12.93;;;-3.10;93.70;;;;;;4958884;28;20700;-68
2021/12/26 09:49:12;;;;;;;22.40;12.02;;;-3.10;93.70;;;;;;4957632;28;20043;-67
2021/12/26 09:51:38;;;;;;;21.95;12.82;;;-3.00;93.60;;;;;;4958714;28;20041;-67
2021/12/26 09:54:05;;;;;;;24.83;13.88;;;-3.00;93.60;;;;;;4960312;28;20030;-68
2021/12/26 09:56:31;;;;;;;25.67;14.25;;;-3.00;93.60;;;;;;4958412;28;20038;-68
2021/12/26 09:59:00;;;;;;;26.13;13.50;;;-2.90;93.60;;;;;;4958420;28;20457;-67
2021/12/26 10:01:46;;;;;;;24.85;13.10;;;-2.90;93.50;;;;;;4958051;28;20071;-67
2021/12/26 10:04:17;;;;;;;27.60;13.00;;;-2.80;93.50;;;;;;4956820;28;20026;-68
2021/12/26 10:06:45;;;;;;;25.27;13.40;;;-2.80;93.50;;;;;;4957904;28;20571;-68
2021/12/26 10:09:10;;;;;;;28.13;13.57;;;-2.70;93.40;;;;;;4960335;28;20047;-67
2021/12/26 10:11:51;;;;;;;26.42;14.73;;;-2.70;93.40;;;;;;4957046;28;20027;-68
2021/12/26 10:14:20;;;;;;;25.20;14.27;;;-2.70;93.40;;;;;;4956932;28;20038;-68
2021/12/26 10:16:49;;;;;;;22.92;14.05;;;-2.60;93.30;;;;;;4955756;28;20491;-68
2021/12/26 10:19:15;;;;;;;28.63;14.57;;;-2.60;93.30;;;;;;4961174;28;20030;-68
2021/12/26 10:21:45;;;;;;;23.83;14.27;;;-2.50;93.30;;;;;;4964947;28;20086;-66
2021/12/26 10:24:15;;;;;;;27.52;14.18;;;-2.50;93.30;;;;;;4957755;28;20031;-67
2021/12/26 10:26:50;;;;;;;25.02;13.40;;;-2.40;93.20;;;;;;4958724;28;20498;-67
2021/12/26 10:29:33;;;;;;;24.00;12.68;;;-2.40;93.20;;;;;;4955208;28;20553;-68
2021/12/26 10:32:14;;;;;;;26.10;12.98;;;-2.40;93.20;;;;;;4961313;28;20031;-67
2021/12/26 10:34:44;;;;;;;21.85;12.57;;;-2.30;93.20;;;;;;4955511;28;20065;-67
2021/12/26 10:37:11;;;;;;;20.45;11.57;;;-2.20;93.20;;;;;;4957846;28;20038;-67
2021/12/26 10:39:41;;;;;;;20.15;11.30;;;-2.20;93.10;;;;;;4957281;28;20493;-67
2021/12/26 10:42:10;;;;;;;23.35;11.55;;;-2.20;92.90;;;;;;4957920;28;20035;-67
2021/12/26 10:44:42;;;;;;;21.45;10.88;;;-2.20;92.90;;;;;;4956075;28;20054;-67
2021/12/26 10:47:11;;;;;;;19.63;10.48;;;-2.20;92.90;;;;;;4955809;28;20043;-67
2021/12/26 10:49:53;;;;;;;20.05;10.68;;;-2.10;92.80;;;;;;4957468;28;20035;-67
2021/12/26 10:52:24;;;;;;;17.17;9.60;;;-2.10;92.80;;;;;;4958521;28;20035;-67
2021/12/26 10:55:03;;;;;;;22.13;11.52;;;-2.00;92.80;;;;;;4955955;28;20030;-68
2021/12/26 10:57:36;;;;;;;24.13;11.50;;;-2.00;92.70;;;;;;4959864;28;20042;-67
2021/12/26 11:00:05;;;;;;;17.67;10.40;;;-1.90;92.50;;;;;;4954038;28;20066;-67
2021/12/26 11:02:32;;;;;;;18.35;10.60;;;-2.00;92.20;;;;;;4970869;28;20026;-67
2021/12/26 11:05:07;;;;;;;19.10;10.50;;;-2.00;92.30;;;;;;4969819;28;20026;-66
2021/12/26 11:08:00;;;;;;;19.70;10.05;;;-2.00;92.20;;;;;;4954892;28;20060;-67
2021/12/26 11:10:31;;;;;;;18.73;9.70;;;-1.90;92.20;;;;;;4955155;28;20042;-66
2021/12/26 11:13:00;;;;;;;19.65;9.57;;;-1.90;92.20;;;;;;4958039;28;20069;-67
2021/12/26 11:15:29;;;;;;;22.70;11.25;;;-1.80;92.20;;;;;;4955509;28;20027;-66
2021/12/26 11:18:08;;;;;;;21.80;11.10;;;-1.80;92.10;;;;;;4958527;28;20037;-68
2021/12/26 11:20:43;;;;;;;21.55;11.10;;;-1.70;92.10;;;;;;4971188;28;20101;-66
2021/12/26 11:23:16;;;;;;;21.45;10.25;;;-1.70;92.30;;;;;;4962540;28;20034;-66
2021/12/26 11:25:55;;;;;;;19.50;9.43;;;-1.60;92.00;;;;;;4955796;28;20030;-67
2021/12/26 11:28:26;;;;;;;17.63;8.73;;;-1.60;91.80;;;;;;4958900;28;20045;-67
2021/12/26 11:31:04;;;;;;;16.88;9.02;;;-1.50;91.80;;;;;;4963287;28;20037;-67
2021/12/26 11:33:30;;;;;;;16.23;8.35;;;-1.50;91.80;;;;;;4967413;28;20045;-67
2021/12/26 11:35:57;;;;;;;15.43;8.48;;;-1.40;91.60;;;;;;4958013;28;20406;-68
2021/12/26 11:38:25;;;;;;;15.32;7.55;;;-1.40;91.20;;;;;;4967385;28;20069;-68
2021/12/26 11:41:05;;;;;;;11.93;7.10;;;-1.30;90.90;;;;;;4961806;28;20443;-68
2021/12/26 11:43:52;;;;;;;14.75;7.63;;;-1.30;90.80;;;;;;4967158;28;20033;-68
2021/12/26 11:46:34;;;;;;;15.95;8.45;;;-1.20;90.90;;;;;;4972444;28;20562;-68
2021/12/26 11:49:21;;;;;;;12.45;6.55;;;-1.10;91.00;;;;;;4966331;28;20118;-68
2021/12/26 11:52:14;;;;;;;14.05;7.50;;;-1.10;90.80;;;;;;4954802;28;20023;-68
2021/12/26 11:55:16;;;;;;;15.77;7.25;;;-1.10;90.70;;;;;;4957802;28;20029;-67
2021/12/26 11:57:51;;;;;;;15.95;7.80;;;-1.00;90.60;;;;;;4959874;28;20077;-66
2021/12/26 12:00:18;;;;;;;;;;;-0.90;90.70;;;;;;4971440;28;20039;-68
2021/12/26 12:02:51;;;;;;;10.20;5.55;;;-0.80;90.80;;;;;;4970550;28;19910;-69
2021/12/26 12:05:23;;;;;;;11.25;6.13;;;-0.80;90.40;;;;;;4964862;28;20045;-68
2021/12/26 12:07:55;;;;;;;16.27;6.95;;;-0.80;90.10;;;;;;4959239;28;20074;-69
2021/12/26 12:10:46;;;;;;;11.90;5.68;;;-0.70;90.10;;;;;;4967883;28;20035;-69
2021/12/26 12:13:27;;;;;;;12.80;6.35;;;-0.70;89.70;;;;;;4970271;28;20061;-68
2021/12/26 12:15:57;;;;;;;10.82;5.15;;;-0.60;89.70;;;;;;4970793;28;20117;-68
2021/12/26 12:18:32;;;;;;;10.27;5.75;;;-0.60;89.90;;;;;;4984379;28;20065;-69
2021/12/26 12:21:08;;;;;;;7.00;4.68;;;-0.50;89.30;;;;;;4952745;28;20035;-69
2021/12/26 12:23:34;;;;;;;8.75;4.18;;;-0.50;89.10;;;;;;4963807;28;20454;-68
2021/12/26 12:26:00;;;;;;;9.00;4.47;;;-0.40;87.50;;;;;;4949497;28;20114;-68
2021/12/26 12:28:32;;;;;;;8.43;4.55;;;-0.40;88.00;;;;;;4956862;28;20084;-68
2021/12/26 12:31:07;;;;;;;10.32;4.60;;;-0.40;87.30;;;;;;4955304;28;20034;-68
2021/12/26 12:33:33;;;;;;;9.55;4.78;;;-0.30;87.20;;;;;;4954344;28;20817;-69
2021/12/26 12:36:03;;;;;;;9.57;5.35;;;-0.40;87.30;;;;;;4951997;28;20151;-68